Time;durP1;ratioP1;P1;durP2;ratioP2;P2;SDS_P1;SDS_P2;PMS_P1;PMS_P2;Temp;Humidity;BMP_temperature;BMP_pressure;BME280_temperature;BME280_humidity;BME280_pressure;Samples;Min_cycle;Max_cycle;Signal;HPM_P1;HPM_P2
2022/10/07 00:00:51;;;;;;;1.40;1.30;;;22.10;43.60;;;;;;5040055;28;20705;-60
2022/10/07 00:03:17;;;;;;;1.20;1.03;;;22.10;43.50;;;;;;5035715;28;20456;-60
2022/10/07 00:05:43;;;;;;;1.73;1.10;;;22.10;43.50;;;;;;5040452;28;21171;-58
2022/10/07 00:08:09;;;;;;;1.33;1.20;;;22.10;43.60;;;;;;5037983;28;20449;-58
2022/10/07 00:10:40;;;;;;;1.30;1.20;;;22.10;43.50;;;;;;5041754;28;20642;-60
2022/10/07 00:13:06;;;;;;;1.40;1.30;;;22.10;43.60;;;;;;5037547;28;20665;-58
2022/10/07 00:15:32;;;;;;;1.37;1.27;;;22.10;43.50;;;;;;5039665;28;20479;-59
2022/10/07 00:17:57;;;;;;;1.90;1.20;;;22.10;43.60;;;;;;5039576;28;20463;-60
2022/10/07 00:20:26;;;;;;;1.60;1.20;;;22.10;43.60;;;;;;5038869;28;20226;-59
2022/10/07 00:22:52;;;;;;;1.53;1.23;;;22.10;43.60;;;;;;5038436;28;20237;-58
2022/10/07 00:25:18;;;;;;;1.37;1.27;;;22.10;43.60;;;;;;5042195;28;20461;-59
2022/10/07 00:27:43;;;;;;;1.20;1.10;;;22.10;43.60;;;;;;5038473;28;20443;-58
2022/10/07 00:30:09;;;;;;;1.40;1.30;;;22.10;43.60;;;;;;5038059;28;20213;-58
2022/10/07 00:32:35;;;;;;;1.20;1.10;;;22.10;43.50;;;;;;5037741;28;20280;-60
2022/10/07 00:35:00;;;;;;;8.10;2.00;;;22.10;43.60;;;;;;5040436;28;20889;-61
2022/10/07 00:37:26;;;;;;;1.40;1.20;;;22.10;43.50;;;;;;5039722;28;20237;-63
2022/10/07 00:39:52;;;;;;;1.40;1.20;;;22.10;43.60;;;;;;5039274;28;20229;-59
2022/10/07 00:42:17;;;;;;;1.53;1.10;;;22.10;43.50;;;;;;5040969;28;20315;-60
2022/10/07 00:44:44;;;;;;;1.27;1.17;;;22.10;43.60;;;;;;5052932;28;20236;-62
2022/10/07 00:47:16;;;;;;;1.40;1.30;;;22.10;43.50;;;;;;5038445;28;20226;-59
2022/10/07 00:49:50;;;;;;;1.43;1.33;;;22.10;43.60;;;;;;5029566;28;20483;-58
2022/10/07 00:52:19;;;;;;;1.60;1.47;;;22.10;43.60;;;;;;5016653;28;20551;-60
2022/10/07 00:54:46;;;;;;;1.47;1.30;;;22.10;43.60;;;;;;5034825;28;20463;-58
2022/10/07 00:57:12;;;;;;;1.30;1.20;;;22.10;43.60;;;;;;5032524;28;20462;-60
2022/10/07 00:59:39;;;;;;;1.30;1.20;;;22.10;43.60;;;;;;5032122;28;20447;-60
2022/10/07 01:02:05;;;;;;;1.23;1.10;;;22.10;43.60;;;;;;5037521;28;20221;-59
2022/10/07 01:04:31;;;;;;;1.40;1.30;;;22.00;43.60;;;;;;5038736;28;20459;-60
2022/10/07 01:06:57;;;;;;;1.70;1.10;;;22.10;43.60;;;;;;5036842;28;20830;-63
2022/10/07 01:09:23;;;;;;;1.30;1.17;;;22.10;43.60;;;;;;5038053;28;20214;-61
2022/10/07 01:11:59;;;;;;;1.30;1.20;;;22.10;43.60;;;;;;5038402;28;20217;-60
2022/10/07 01:14:54;;;;;;;1.40;1.30;;;22.10;43.60;;;;;;5038571;28;20230;-60
2022/10/07 01:17:34;;;;;;;1.57;1.40;;;22.10;43.70;;;;;;5038313;28;20722;-62
2022/10/07 01:20:31;;;;;;;1.40;1.27;;;22.10;43.60;;;;;;5036335;28;20474;-58
2022/10/07 01:23:04;;;;;;;1.40;1.10;;;22.00;43.60;;;;;;5038952;28;21688;-60
2022/10/07 01:26:06;;;;;;;2.53;1.20;;;22.00;43.60;;;;;;5037984;28;20830;-59
2022/10/07 01:28:51;;;;;;;1.23;1.13;;;22.00;43.50;;;;;;5036167;28;20617;-58
2022/10/07 01:31:23;;;;;;;1.30;1.20;;;22.00;43.60;;;;;;5036381;28;20461;-59
2022/10/07 01:33:51;;;;;;;1.30;1.20;;;22.00;43.60;;;;;;5030441;28;20471;-62
2022/10/07 01:36:21;;;;;;;1.10;1.00;;;22.00;43.60;;;;;;5037327;28;20469;-59
2022/10/07 01:38:52;;;;;;;1.43;1.17;;;22.00;43.60;;;;;;5033573;28;20793;-60
2022/10/07 01:41:20;;;;;;;1.40;1.17;;;22.10;43.60;;;;;;5037343;28;20470;-59
2022/10/07 01:43:47;;;;;;;1.10;1.00;;;22.00;43.60;;;;;;5037878;28;20999;-63
2022/10/07 01:46:23;;;;;;;1.20;1.10;;;22.00;43.60;;;;;;5039728;28;20980;-59
2022/10/07 01:48:50;;;;;;;1.10;1.00;;;22.00;43.60;;;;;;5037278;28;20465;-61
2022/10/07 01:51:17;;;;;;;1.27;1.10;;;22.10;43.60;;;;;;5037813;28;20453;-62
2022/10/07 01:54:01;;;;;;;1.57;1.30;;;22.00;43.60;;;;;;5037837;28;20886;-62
2022/10/07 01:56:42;;;;;;;1.27;1.17;;;22.00;43.60;;;;;;5040357;28;20829;-58
2022/10/07 01:59:34;;;;;;;1.40;1.30;;;22.00;43.50;;;;;;5043311;28;20953;-60
2022/10/07 02:02:21;;;;;;;2.03;1.30;;;22.00;43.60;;;;;;5041795;28;20467;-59
2022/10/07 02:05:09;;;;;;;1.97;1.50;;;22.00;43.60;;;;;;5042568;28;20533;-59
2022/10/07 02:07:55;;;;;;;1.40;1.30;;;22.00;43.50;;;;;;5034342;28;23118;-60
2022/10/07 02:10:46;;;;;;;1.40;1.10;;;22.00;43.60;;;;;;5033909;28;21000;-59
2022/10/07 02:13:36;;;;;;;1.47;1.30;;;22.00;43.60;;;;;;5039360;28;20443;-61
2022/10/07 02:16:39;;;;;;;1.40;1.30;;;22.00;43.60;;;;;;5042738;28;20699;-62
2022/10/07 02:19:14;;;;;;;1.27;1.17;;;22.10;43.60;;;;;;5039169;28;20447;-61
2022/10/07 02:21:41;;;;;;;1.20;1.03;;;22.00;43.60;;;;;;5038638;28;20496;-60
2022/10/07 02:24:10;;;;;;;1.30;1.20;;;22.00;43.60;;;;;;5038640;28;20446;-59
2022/10/07 02:26:36;;;;;;;1.20;1.10;;;22.00;43.60;;;;;;5038801;28;20463;-60
2022/10/07 02:29:06;;;;;;;1.30;1.20;;;22.00;44.40;;;;;;5037897;28;20451;-61
2022/10/07 02:31:34;;;;;;;1.33;1.13;;;22.00;43.60;;;;;;5038711;28;20454;-59
2022/10/07 02:34:03;;;;;;;1.83;1.53;;;22.00;43.60;;;;;;5037830;28;20490;-60
2022/10/07 02:36:33;;;;;;;1.30;1.20;;;22.00;43.60;;;;;;5040533;28;20481;-59
2022/10/07 02:38:59;;;;;;;1.50;1.20;;;22.00;43.60;;;;;;5038836;28;20454;-61
2022/10/07 02:41:51;;;;;;;1.20;1.10;;;22.00;43.60;;;;;;5042541;28;20538;-59
2022/10/07 02:44:26;;;;;;;1.33;1.23;;;22.10;43.60;;;;;;5038613;28;20455;-62
2022/10/07 02:47:04;;;;;;;1.70;1.30;;;22.00;43.60;;;;;;5036593;28;20548;-59
2022/10/07 02:49:36;;;;;;;1.30;1.20;;;22.00;44.30;;;;;;5038337;28;20454;-61
2022/10/07 02:52:06;;;;;;;1.70;1.17;;;22.00;43.60;;;;;;5036642;28;20955;-61
2022/10/07 02:54:42;;;;;;;1.30;1.20;;;22.00;43.60;;;;;;5039768;28;20462;-60
2022/10/07 02:57:12;;;;;;;1.20;1.10;;;22.00;44.10;;;;;;5041805;28;20447;-59
2022/10/07 02:59:39;;;;;;;1.20;1.10;;;22.00;43.60;;;;;;5040686;28;20451;-59
2022/10/07 03:02:08;;;;;;;1.40;1.30;;;22.00;43.50;;;;;;5034577;28;21241;-60
2022/10/07 03:04:34;;;;;;;1.33;1.20;;;22.00;43.50;;;;;;5021068;28;20955;-59
2022/10/07 03:07:00;;;;;;;1.10;1.00;;;22.00;43.50;;;;;;5043688;28;20447;-59
2022/10/07 03:09:26;;;;;;;1.30;1.13;;;22.00;43.50;;;;;;5039434;28;20222;-59
2022/10/07 03:11:52;;;;;;;1.07;0.97;;;22.00;43.50;;;;;;5041500;28;20464;-59
2022/10/07 03:14:18;;;;;;;1.30;1.10;;;22.00;43.50;;;;;;5041050;28;20479;-58
2022/10/07 03:16:43;;;;;;;1.17;1.07;;;22.00;43.60;;;;;;5035789;28;20225;-63
2022/10/07 03:19:09;;;;;;;2.20;1.17;;;22.00;43.60;;;;;;5035562;28;20225;-60
2022/10/07 03:21:35;;;;;;;1.73;1.63;;;22.00;43.50;;;;;;5037585;28;20210;-63
2022/10/07 03:24:03;;;;;;;1.40;1.27;;;22.00;43.50;;;;;;5036304;28;20463;-62
2022/10/07 03:26:33;;;;;;;1.40;1.27;;;22.00;43.50;;;;;;5038824;28;20745;-60
2022/10/07 03:29:00;;;;;;;1.63;1.53;;;22.00;43.50;;;;;;5038915;28;21008;-59
2022/10/07 03:31:26;;;;;;;1.63;1.53;;;22.00;43.50;;;;;;5041561;28;20546;-61
2022/10/07 03:33:56;;;;;;;1.40;1.27;;;22.00;43.50;;;;;;5038148;28;20471;-59
2022/10/07 03:36:23;;;;;;;1.27;1.10;;;22.00;43.50;;;;;;5039762;28;21553;-60
2022/10/07 03:38:49;;;;;;;1.20;1.10;;;22.00;43.50;;;;;;5037582;28;20445;-63
2022/10/07 03:41:16;;;;;;;1.30;1.20;;;22.00;43.50;;;;;;5040437;28;20565;-58
2022/10/07 03:43:41;;;;;;;2.07;1.00;;;22.00;43.50;;;;;;5038807;28;20455;-60
2022/10/07 03:46:07;;;;;;;1.20;1.10;;;22.00;43.40;;;;;;5043220;28;20447;-59
2022/10/07 03:48:32;;;;;;;1.20;1.10;;;22.00;43.50;;;;;;5039568;28;20229;-61
2022/10/07 03:50:58;;;;;;;1.00;1.00;;;22.00;43.50;;;;;;5038756;28;20279;-60
2022/10/07 03:53:26;;;;;;;1.37;1.00;;;22.00;43.50;;;;;;5037528;28;20662;-60
2022/10/07 03:55:51;;;;;;;1.37;1.27;;;22.00;43.50;;;;;;5039694;28;20234;-58
2022/10/07 03:58:17;;;;;;;1.30;1.20;;;22.00;43.50;;;;;;5041304;28;20857;-58
2022/10/07 04:00:42;;;;;;;1.20;1.10;;;22.00;43.40;;;;;;5043839;28;20214;-59
2022/10/07 04:03:08;;;;;;;1.33;1.23;;;22.00;43.50;;;;;;5041459;28;20304;-59
2022/10/07 04:05:35;;;;;;;1.83;1.33;;;22.00;43.40;;;;;;5020568;28;20579;-59
2022/10/07 04:08:02;;;;;;;1.30;1.20;;;22.00;43.50;;;;;;5036399;28;20224;-60
2022/10/07 04:10:27;;;;;;;1.27;1.17;;;22.00;43.50;;;;;;5036003;28;20544;-60
2022/10/07 04:12:53;;;;;;;1.40;1.20;;;22.00;43.50;;;;;;5039942;28;20447;-58
2022/10/07 04:15:19;;;;;;;1.13;1.03;;;22.00;43.50;;;;;;5037250;28;20229;-59
2022/10/07 04:17:46;;;;;;;1.13;1.03;;;22.00;43.50;;;;;;5036731;28;20225;-60
2022/10/07 04:20:14;;;;;;;1.27;1.17;;;22.00;43.50;;;;;;5036439;28;20238;-59
2022/10/07 04:22:39;;;;;;;1.23;1.13;;;22.00;43.50;;;;;;5038359;28;20463;-61
2022/10/07 04:27:52;;;;;;;0.93;0.93;;;22.00;43.50;;;;;;5035406;28;21141;-59
2022/10/07 04:30:18;;;;;;;1.30;1.20;;;22.00;43.50;;;;;;5033466;28;20946;-63
2022/10/07 04:32:44;;;;;;;1.53;1.43;;;22.00;43.50;;;;;;5037043;28;20508;-60
2022/10/07 04:35:09;;;;;;;1.07;0.97;;;22.00;43.50;;;;;;5041839;28;20484;-65
2022/10/07 04:37:35;;;;;;;1.67;1.40;;;22.00;43.50;;;;;;5035740;28;20228;-60
2022/10/07 04:40:00;;;;;;;1.50;1.17;;;22.00;43.50;;;;;;5036850;28;20230;-58
2022/10/07 04:45:10;;;;;;;1.10;1.00;;;22.00;43.50;;;;;;5035267;28;20248;-61
2022/10/07 04:47:36;;;;;;;1.40;1.30;;;22.00;43.50;;;;;;5040918;28;21657;-59
2022/10/07 04:50:02;;;;;;;1.33;1.00;;;22.00;43.50;;;;;;5038025;28;20229;-59
2022/10/07 04:52:28;;;;;;;1.20;1.10;;;22.00;43.50;;;;;;5037190;28;20257;-59
2022/10/07 04:54:53;;;;;;;1.27;1.17;;;22.00;43.40;;;;;;5038107;28;20635;-58
2022/10/07 04:57:19;;;;;;;1.23;1.10;;;22.00;43.50;;;;;;5038678;28;20229;-59
2022/10/07 04:59:44;;;;;;;1.40;1.30;;;22.00;43.40;;;;;;5033374;28;20222;-62
2022/10/07 05:02:10;;;;;;;1.93;1.17;;;22.10;43.50;;;;;;5011155;28;20228;-63
2022/10/07 05:04:36;;;;;;;1.37;1.27;;;22.10;43.40;;;;;;5026356;28;20271;-59
2022/10/07 05:07:01;;;;;;;1.70;1.60;;;22.10;43.50;;;;;;5030249;28;20274;-60
2022/10/07 05:09:27;;;;;;;1.63;1.33;;;22.10;43.40;;;;;;5035704;28;20268;-59
2022/10/07 05:11:54;;;;;;;1.83;1.10;;;22.10;43.40;;;;;;5033180;28;20232;-61
2022/10/07 05:14:21;;;;;;;1.30;1.20;;;22.10;43.40;;;;;;5036915;28;20230;-59
2022/10/07 05:16:47;;;;;;;1.13;1.03;;;22.10;43.30;;;;;;5032468;28;20980;-58
2022/10/07 05:19:13;;;;;;;2.40;1.43;;;22.10;43.30;;;;;;5032522;28;20974;-59
2022/10/07 05:21:39;;;;;;;1.50;1.30;;;22.10;43.30;;;;;;5032713;28;20573;-60
2022/10/07 05:24:04;;;;;;;1.23;1.13;;;22.10;43.30;;;;;;5032034;28;20313;-59
2022/10/07 05:26:30;;;;;;;1.33;1.20;;;22.10;43.30;;;;;;5030541;28;20615;-60
2022/10/07 05:28:55;;;;;;;2.70;1.40;;;22.10;43.30;;;;;;5029849;28;20684;-60
2022/10/07 05:31:21;;;;;;;2.33;1.60;;;22.10;43.30;;;;;;5029948;28;20345;-61
2022/10/07 05:33:48;;;;;;;2.90;1.17;;;22.10;43.30;;;;;;5028771;28;20310;-61
2022/10/07 05:36:14;;;;;;;1.20;1.10;;;22.10;43.30;;;;;;5029286;28;20238;-64
2022/10/07 05:38:40;;;;;;;1.40;1.30;;;22.10;43.30;;;;;;5029140;28;20465;-64
2022/10/07 05:41:08;;;;;;;1.40;1.30;;;22.10;43.30;;;;;;5028160;28;20580;-64
2022/10/07 05:43:36;;;;;;;1.67;1.57;;;22.10;43.20;;;;;;5016476;28;20467;-63
2022/10/07 05:46:13;;;;;;;1.53;1.10;;;22.10;43.20;;;;;;5029996;28;20954;-62
2022/10/07 05:48:39;;;;;;;1.20;1.00;;;22.10;43.20;;;;;;5026304;28;20451;-65
2022/10/07 05:51:06;;;;;;;1.73;1.13;;;22.10;43.20;;;;;;5029242;28;20559;-61
2022/10/07 05:53:32;;;;;;;1.40;1.30;;;22.10;43.30;;;;;;5022930;28;20478;-62
2022/10/07 05:55:58;;;;;;;1.30;1.20;;;22.10;43.30;;;;;;5025184;28;20478;-64
2022/10/07 05:58:23;;;;;;;1.77;1.10;;;22.10;43.20;;;;;;5025280;28;20462;-64
2022/10/07 06:00:52;;;;;;;1.63;1.53;;;22.10;43.10;;;;;;5027845;28;20698;-60
2022/10/07 06:03:18;;;;;;;1.40;1.30;;;22.20;43.20;;;;;;5031757;28;20293;-60
2022/10/07 06:05:45;;;;;;;2.27;1.67;;;22.10;43.10;;;;;;5022449;28;20471;-60
2022/10/07 06:08:11;;;;;;;2.00;1.20;;;22.10;43.00;;;;;;5015125;28;20550;-63
2022/10/07 06:13:22;;;;;;;1.47;1.37;;;22.10;42.80;;;;;;5020840;28;20701;-59
2022/10/07 06:15:48;;;;;;;1.40;1.30;;;22.20;42.90;;;;;;5018736;28;20482;-59
2022/10/07 06:18:14;;;;;;;1.33;1.23;;;22.10;42.90;;;;;;5023281;28;20520;-61
2022/10/07 06:20:39;;;;;;;1.40;1.20;;;22.10;42.80;;;;;;5009456;28;20459;-62
2022/10/07 06:23:06;;;;;;;2.23;1.30;;;22.10;42.80;;;;;;5015280;28;20224;-61
2022/10/07 06:25:32;;;;;;;1.40;1.23;;;22.10;42.70;;;;;;5021469;28;20230;-62
2022/10/07 06:27:58;;;;;;;2.03;1.30;;;22.10;42.70;;;;;;5023532;28;20459;-62
2022/10/07 06:30:24;;;;;;;2.30;1.20;;;22.10;42.70;;;;;;5019128;28;20678;-61
2022/10/07 06:32:50;;;;;;;1.50;1.40;;;22.10;42.70;;;;;;5020134;28;20466;-58
2022/10/07 06:35:16;;;;;;;1.70;1.60;;;22.10;42.70;;;;;;5024466;28;20316;-60
2022/10/07 06:37:41;;;;;;;4.33;1.70;;;22.10;42.70;;;;;;5019883;28;20313;-62
2022/10/07 06:40:07;;;;;;;3.07;1.17;;;22.20;42.80;;;;;;5019589;28;20224;-61
2022/10/07 06:42:33;;;;;;;2.50;1.30;;;22.20;42.80;;;;;;5016340;28;20234;-62
2022/10/07 06:44:58;;;;;;;1.60;1.50;;;22.20;42.80;;;;;;5015750;28;21073;-59
2022/10/07 06:47:24;;;;;;;4.30;1.60;;;22.20;42.80;;;;;;5022380;28;20225;-62
2022/10/07 06:49:49;;;;;;;3.23;1.53;;;22.20;42.80;;;;;;5026703;28;20222;-60
2022/10/07 06:52:15;;;;;;;1.30;1.20;;;22.20;42.70;;;;;;5025524;28;20245;-60
2022/10/07 06:54:41;;;;;;;2.10;1.30;;;22.20;42.70;;;;;;5028606;28;20261;-61
2022/10/07 06:57:06;;;;;;;4.40;1.33;;;22.20;42.80;;;;;;5028268;28;20230;-64
2022/10/07 06:59:32;;;;;;;2.47;1.30;;;22.20;42.80;;;;;;5027829;28;20246;-59
2022/10/07 07:01:58;;;;;;;1.40;1.30;;;22.30;42.90;;;;;;5030124;28;20743;-59
2022/10/07 07:04:24;;;;;;;2.10;1.17;;;22.20;42.80;;;;;;5025612;28;20230;-58
2022/10/07 07:06:49;;;;;;;1.60;1.50;;;22.20;42.80;;;;;;5027999;28;20473;-63
2022/10/07 07:09:15;;;;;;;1.50;1.40;;;22.30;43.00;;;;;;5013184;28;20443;-59
2022/10/07 07:11:42;;;;;;;2.10;1.17;;;22.30;43.00;;;;;;5025245;28;20226;-61
2022/10/07 07:14:10;;;;;;;1.37;1.27;;;22.30;43.00;;;;;;5023169;28;21140;-60
2022/10/07 07:16:36;;;;;;;2.47;1.47;;;22.30;43.00;;;;;;5026492;28;20451;-60
2022/10/07 07:19:07;;;;;;;1.30;1.20;;;22.30;43.00;;;;;;5025965;28;20492;-62
2022/10/07 07:21:34;;;;;;;1.90;1.40;;;22.30;43.00;;;;;;5026304;28;20890;-59
2022/10/07 07:24:01;;;;;;;1.60;1.47;;;22.30;43.10;;;;;;5023154;28;20513;-62
2022/10/07 07:26:27;;;;;;;1.83;1.73;;;22.30;43.10;;;;;;5031079;28;20563;-59
2022/10/07 07:28:58;;;;;;;2.80;1.50;;;22.30;43.10;;;;;;5028895;28;20466;-61
2022/10/07 07:31:24;;;;;;;2.30;1.60;;;22.30;43.10;;;;;;5031099;28;20822;-59
2022/10/07 07:33:51;;;;;;;4.50;1.47;;;22.30;44.00;;;;;;5026495;28;20467;-60
2022/10/07 07:36:19;;;;;;;2.03;1.40;;;22.30;43.10;;;;;;5028594;28;21329;-60
2022/10/07 07:38:53;;;;;;;1.50;1.40;;;22.30;43.20;;;;;;5032591;28;20487;-59
2022/10/07 07:41:24;;;;;;;1.57;1.47;;;22.30;43.10;;;;;;5025549;28;20500;-59
2022/10/07 07:43:52;;;;;;;1.80;1.40;;;22.30;43.10;;;;;;5025526;28;20463;-62
2022/10/07 07:46:19;;;;;;;1.50;1.40;;;22.30;43.20;;;;;;5034238;28;21320;-62
2022/10/07 07:48:45;;;;;;;1.40;1.30;;;22.30;43.10;;;;;;5030457;28;20459;-62
2022/10/07 07:51:12;;;;;;;1.63;1.53;;;22.30;43.10;;;;;;5026501;28;20554;-60
2022/10/07 07:53:38;;;;;;;1.60;1.50;;;22.30;43.20;;;;;;5001381;28;20484;-64
2022/10/07 07:56:04;;;;;;;2.27;1.80;;;22.30;43.10;;;;;;5030302;28;20475;-59
2022/10/07 07:58:30;;;;;;;1.83;1.73;;;22.30;43.20;;;;;;5024229;28;20230;-60
2022/10/07 08:01:07;;;;;;;2.07;1.80;;;22.30;43.20;;;;;;5024140;28;20486;-61
2022/10/07 08:03:37;;;;;;;2.43;1.70;;;22.40;43.30;;;;;;5037733;28;20454;-60
2022/10/07 08:06:06;;;;;;;2.90;1.50;;;22.40;43.40;;;;;;5036826;28;20460;-62
2022/10/07 08:08:33;;;;;;;4.00;1.80;;;22.30;43.30;;;;;;5033360;28;20506;-61
2022/10/07 08:11:15;;;;;;;1.90;1.80;;;22.40;43.30;;;;;;5036296;28;20514;-62
2022/10/07 08:13:40;;;;;;;3.60;1.60;;;22.40;43.30;;;;;;5038059;28;20471;-60
2022/10/07 08:16:07;;;;;;;2.67;1.73;;;22.40;43.40;;;;;;5039526;28;20514;-61
2022/10/07 08:18:33;;;;;;;1.90;1.30;;;22.40;43.40;;;;;;5037166;28;20253;-60
2022/10/07 08:21:03;;;;;;;2.93;1.87;;;22.40;43.70;;;;;;5039711;28;20442;-60
2022/10/07 08:23:29;;;;;;;2.20;2.00;;;22.40;43.40;;;;;;5041312;28;20459;-62
2022/10/07 08:25:56;;;;;;;2.40;1.87;;;22.40;43.50;;;;;;5039198;28;20467;-62
2022/10/07 08:28:22;;;;;;;2.60;2.00;;;22.40;43.40;;;;;;5040748;28;20237;-59
2022/10/07 08:30:49;;;;;;;2.97;2.20;;;22.40;43.40;;;;;;5040829;28;20447;-59
2022/10/07 08:33:16;;;;;;;1.97;1.70;;;22.40;43.40;;;;;;5035864;28;20524;-59
2022/10/07 08:35:42;;;;;;;2.40;2.20;;;22.40;43.40;;;;;;5040461;28;20495;-60
2022/10/07 08:38:07;;;;;;;2.03;1.83;;;22.40;43.40;;;;;;5043905;28;21038;-59
2022/10/07 08:40:34;;;;;;;2.30;1.73;;;22.40;43.40;;;;;;5043175;28;20529;-63
2022/10/07 08:43:00;;;;;;;2.03;1.93;;;22.40;43.40;;;;;;5039019;28;20230;-61
2022/10/07 08:45:30;;;;;;;2.10;1.90;;;22.40;43.40;;;;;;5041979;28;20459;-59
2022/10/07 08:48:01;;;;;;;10.23;2.17;;;22.40;43.40;;;;;;5039242;28;21188;-59
2022/10/07 08:50:50;;;;;;;1.90;1.70;;;22.40;43.50;;;;;;5040624;28;20546;-59
2022/10/07 08:53:22;;;;;;;2.10;1.90;;;22.40;43.40;;;;;;5041744;28;20447;-58
2022/10/07 08:55:52;;;;;;;2.43;2.00;;;22.40;43.40;;;;;;5039339;28;20562;-63
2022/10/07 08:58:39;;;;;;;1.87;1.70;;;22.40;43.40;;;;;;5038598;28;20464;-58
2022/10/07 09:01:49;;;;;;;2.37;2.00;;;22.40;43.40;;;;;;5041465;28;20467;-58
2022/10/07 09:04:53;;;;;;;2.23;2.03;;;22.40;43.40;;;;;;4957701;28;20533;-59
2022/10/07 09:07:33;;;;;;;2.63;2.43;;;22.40;43.40;;;;;;4959812;28;20474;-60
2022/10/07 09:10:13;;;;;;;2.03;1.83;;;22.40;43.40;;;;;;5023378;28;20455;-60
2022/10/07 09:13:13;;;;;;;2.40;2.20;;;22.40;43.50;;;;;;5039660;28;20981;-59
2022/10/07 09:16:08;;;;;;;2.17;1.70;;;22.40;43.50;;;;;;4997891;28;20481;-59
2022/10/07 09:18:40;;;;;;;2.20;2.00;;;22.40;43.50;;;;;;5013569;28;20496;-61
2022/10/07 09:21:18;;;;;;;2.20;2.00;;;22.40;43.40;;;;;;5039994;28;20455;-58
2022/10/07 09:23:45;;;;;;;1.50;1.40;;;22.40;43.40;;;;;;5037774;28;20471;-62
2022/10/07 09:26:13;;;;;;;2.10;1.90;;;22.40;43.50;;;;;;5040290;28;20474;-58
2022/10/07 09:28:39;;;;;;;1.70;1.60;;;22.40;43.50;;;;;;5042035;28;20454;-60
2022/10/07 09:31:05;;;;;;;1.90;1.80;;;22.40;43.50;;;;;;5040939;28;20437;-59
2022/10/07 09:33:36;;;;;;;2.20;2.00;;;22.40;43.50;;;;;;5039412;28;20486;-59
2022/10/07 09:36:07;;;;;;;1.57;1.47;;;22.40;43.40;;;;;;5036091;28;20814;-58
2022/10/07 09:38:36;;;;;;;2.20;1.77;;;22.40;43.40;;;;;;5040595;28;20454;-63
2022/10/07 09:41:16;;;;;;;2.23;1.70;;;22.50;43.60;;;;;;5036162;28;20465;-58
2022/10/07 09:44:06;;;;;;;2.10;1.60;;;22.40;43.40;;;;;;5038877;28;20463;-59
2022/10/07 09:47:18;;;;;;;1.73;1.63;;;22.40;43.30;;;;;;5043365;28;20447;-58
2022/10/07 09:49:47;;;;;;;1.80;1.70;;;22.50;43.50;;;;;;4938873;28;20468;-61
2022/10/07 09:52:15;;;;;;;2.10;1.90;;;22.40;43.40;;;;;;4936110;28;20522;-59
2022/10/07 09:54:43;;;;;;;2.10;1.80;;;22.50;43.50;;;;;;4996277;28;20462;-59
2022/10/07 09:57:31;;;;;;;1.90;1.70;;;22.50;43.50;;;;;;5038729;28;21173;-60
2022/10/07 10:00:12;;;;;;;2.60;2.40;;;22.50;43.40;;;;;;5037824;28;20443;-61
2022/10/07 10:02:46;;;;;;;2.07;1.97;;;22.50;43.50;;;;;;5038843;28;20455;-60
2022/10/07 10:05:27;;;;;;;1.97;1.87;;;22.50;43.40;;;;;;5040276;28;20458;-62
2022/10/07 10:07:59;;;;;;;2.03;1.93;;;22.50;43.50;;;;;;5038151;28;20498;-58
2022/10/07 10:10:28;;;;;;;2.23;1.43;;;22.50;43.50;;;;;;5039802;28;20493;-58
2022/10/07 10:12:56;;;;;;;1.83;1.60;;;22.50;43.40;;;;;;5045174;28;20461;-58
2022/10/07 10:15:24;;;;;;;1.70;1.57;;;22.50;43.50;;;;;;5042612;28;20818;-61
2022/10/07 10:17:50;;;;;;;2.70;1.93;;;22.50;43.40;;;;;;5039360;28;20549;-59
2022/10/07 10:20:25;;;;;;;2.20;1.70;;;22.50;43.40;;;;;;5040641;28;20473;-59
2022/10/07 10:22:51;;;;;;;1.70;1.60;;;22.50;43.40;;;;;;5042846;28;20224;-60
2022/10/07 10:28:44;;;;;;;1.60;1.40;;;22.50;43.30;;;;;;5040133;28;20458;-59
2022/10/07 10:31:28;;;;;;;1.83;1.60;;;22.50;43.30;;;;;;5044463;28;20545;-61
2022/10/07 10:34:37;;;;;;;1.53;1.43;;;22.50;43.30;;;;;;5045173;28;20962;-59
2022/10/07 10:37:19;;;;;;;1.70;1.60;;;22.50;43.30;;;;;;5042906;28;21029;-58
2022/10/07 10:40:18;;;;;;;1.80;1.60;;;22.50;43.30;;;;;;5043828;28;20447;-58
2022/10/07 10:42:47;;;;;;;1.60;1.50;;;22.50;43.30;;;;;;5042661;28;21062;-59
2022/10/07 10:45:30;;;;;;;1.40;1.30;;;22.50;43.30;;;;;;5048892;28;20469;-60
2022/10/07 10:48:30;;;;;;;1.70;1.60;;;22.50;43.30;;;;;;5045255;28;21044;-58
2022/10/07 10:51:20;;;;;;;1.53;1.43;;;22.60;43.50;;;;;;5045997;28;21059;-58
2022/10/07 10:54:07;;;;;;;1.57;1.47;;;22.50;43.30;;;;;;5041478;28;20467;-58
2022/10/07 10:57:18;;;;;;;1.50;1.33;;;22.50;43.30;;;;;;5044296;28;20857;-63
2022/10/07 11:00:09;;;;;;;1.60;1.50;;;22.50;43.30;;;;;;5043972;28;20454;-60
2022/10/07 11:02:38;;;;;;;1.50;1.40;;;22.60;43.50;;;;;;5041757;28;20516;-58
2022/10/07 11:05:19;;;;;;;1.90;1.57;;;22.50;43.40;;;;;;5040976;28;20448;-58
2022/10/07 11:07:55;;;;;;;1.73;1.60;;;22.50;43.30;;;;;;5040297;28;21178;-62
2022/10/07 11:10:33;;;;;;;1.70;1.60;;;22.50;43.30;;;;;;5038537;28;21028;-63
2022/10/07 11:13:26;;;;;;;1.40;1.30;;;22.50;43.30;;;;;;5045296;28;20526;-59
2022/10/07 11:16:10;;;;;;;1.50;1.40;;;22.50;43.30;;;;;;5045019;28;20466;-58
2022/10/07 11:18:44;;;;;;;2.07;1.40;;;22.50;43.30;;;;;;5044593;28;20516;-60
2022/10/07 11:21:16;;;;;;;1.87;1.30;;;22.50;43.40;;;;;;5041995;28;20444;-63
2022/10/07 11:24:14;;;;;;;1.50;1.40;;;22.50;43.30;;;;;;5045341;28;20474;-62
2022/10/07 11:26:56;;;;;;;2.93;1.63;;;22.50;43.30;;;;;;5002062;28;20482;-58
2022/10/07 11:29:39;;;;;;;1.90;1.70;;;22.50;43.40;;;;;;5037313;28;21037;-58
2022/10/07 11:32:11;;;;;;;1.50;1.40;;;22.50;43.40;;;;;;5038244;28;20454;-58
2022/10/07 11:35:00;;;;;;;1.53;1.43;;;22.50;43.40;;;;;;5040419;28;20505;-59
2022/10/07 11:37:41;;;;;;;1.40;1.30;;;22.50;43.40;;;;;;5040873;28;20477;-62
2022/10/07 11:40:08;;;;;;;1.50;1.40;;;22.50;43.40;;;;;;5040827;28;20475;-58
2022/10/07 11:42:41;;;;;;;1.70;1.27;;;22.50;43.40;;;;;;5040945;28;20475;-58
2022/10/07 11:45:15;;;;;;;1.57;1.47;;;22.50;43.50;;;;;;5040983;28;20455;-62
2022/10/07 11:47:46;;;;;;;1.60;1.50;;;22.50;43.50;;;;;;5039447;28;21030;-60
2022/10/07 11:50:26;;;;;;;1.60;1.50;;;22.50;43.50;;;;;;5043633;28;20585;-63
2022/10/07 11:52:59;;;;;;;1.60;1.50;;;22.50;43.40;;;;;;5040222;28;20501;-58
2022/10/07 11:55:35;;;;;;;1.63;1.50;;;22.50;43.50;;;;;;5039027;28;20498;-62
2022/10/07 11:58:03;;;;;;;1.57;1.47;;;22.50;43.50;;;;;;5042405;28;20454;-59
2022/10/07 12:00:33;;;;;;;1.70;1.60;;;22.50;43.50;;;;;;5040446;28;20617;-58
2022/10/07 12:03:17;;;;;;;1.70;1.60;;;22.50;43.50;;;;;;5040425;28;20924;-59
2022/10/07 12:05:48;;;;;;;2.30;1.30;;;22.50;43.50;;;;;;5042279;28;20467;-59
2022/10/07 12:08:28;;;;;;;2.53;1.40;;;22.50;43.50;;;;;;5042789;28;20527;-59
2022/10/07 12:11:14;;;;;;;1.50;1.40;;;22.50;43.50;;;;;;5037994;28;20471;-61
2022/10/07 12:13:44;;;;;;;1.60;1.50;;;22.50;43.60;;;;;;5041030;28;20446;-60
2022/10/07 12:16:22;;;;;;;1.40;1.30;;;22.50;44.30;;;;;;5040229;28;20485;-60
2022/10/07 12:19:06;;;;;;;1.53;1.20;;;22.50;43.60;;;;;;5040853;28;20467;-60
2022/10/07 12:21:59;;;;;;;1.63;1.30;;;22.50;43.60;;;;;;5037030;28;20503;-58
2022/10/07 12:24:35;;;;;;;1.60;1.50;;;22.50;43.50;;;;;;5040169;28;21153;-58
2022/10/07 12:27:16;;;;;;;1.60;1.50;;;22.50;43.60;;;;;;5041909;28;20531;-59
2022/10/07 12:30:03;;;;;;;1.33;1.23;;;22.50;43.60;;;;;;5041823;28;20443;-58
2022/10/07 12:32:45;;;;;;;1.23;1.13;;;22.50;43.60;;;;;;5039848;28;20489;-62
2022/10/07 12:35:28;;;;;;;1.70;1.30;;;22.40;43.50;;;;;;5041487;28;20954;-61
2022/10/07 12:38:09;;;;;;;1.60;1.30;;;22.50;43.60;;;;;;5037566;28;20534;-59
2022/10/07 12:40:35;;;;;;;1.37;1.27;;;22.40;43.50;;;;;;5043788;28;20461;-59
2022/10/07 12:43:22;;;;;;;1.90;1.80;;;22.40;43.60;;;;;;5042228;28;20488;-58
2022/10/07 12:45:49;;;;;;;1.40;1.30;;;22.40;43.60;;;;;;5042696;28;20451;-58
2022/10/07 12:48:19;;;;;;;1.20;1.10;;;22.40;43.50;;;;;;5041119;28;20451;-58
2022/10/07 12:50:46;;;;;;;1.83;1.57;;;22.40;43.60;;;;;;5044649;28;20951;-59
2022/10/07 12:53:12;;;;;;;1.30;1.20;;;22.40;43.50;;;;;;5039646;28;20458;-59
2022/10/07 12:55:45;;;;;;;1.30;1.20;;;22.40;43.60;;;;;;5046546;28;20490;-62
2022/10/07 13:01:52;;;;;;;1.50;1.40;;;22.40;43.50;;;;;;5040065;28;20521;-59
2022/10/07 13:04:18;;;;;;;1.20;1.10;;;22.40;43.60;;;;;;5041896;28;20878;-59
2022/10/07 13:07:08;;;;;;;1.40;1.30;;;22.40;43.60;;;;;;5045414;28;20463;-61
2022/10/07 13:10:14;;;;;;;1.63;1.50;;;22.40;43.50;;;;;;5039905;28;20230;-59
2022/10/07 13:12:46;;;;;;;1.30;1.20;;;22.40;43.50;;;;;;5042670;28;20507;-61
2022/10/07 13:15:30;;;;;;;1.30;1.20;;;22.40;43.60;;;;;;5042353;28;20604;-60
2022/10/07 13:18:18;;;;;;;1.20;1.10;;;22.40;43.60;;;;;;5038672;28;20483;-60
2022/10/07 13:21:16;;;;;;;1.33;1.23;;;22.40;43.50;;;;;;5042517;28;20458;-61
2022/10/07 13:23:52;;;;;;;1.40;1.30;;;22.40;43.60;;;;;;5022968;28;20481;-59
2022/10/07 13:26:21;;;;;;;1.60;1.17;;;22.40;43.50;;;;;;5039572;28;20466;-58
2022/10/07 13:28:55;;;;;;;1.40;1.30;;;22.40;43.50;;;;;;5041105;28;20847;-61